Portada
METAR-TAF:

METAR-TAF

Aeroports :

Aeroport Internacional de Guangzhou-Baiyun

Canton, Xina

latitud: 23-10N, longitud: 113-20E, altitud: 8 m

Observació

L'informe es va fer fa 33 minuts, a les 20:30 UTC
Vent 6 kt del Nord
Temperatura 23°C
Humitat 41%
Pressió 1015 hPa
Visibilitat 10 km o més
sense núvols per sota de 1500 mi sense presència de cumulonimbus.

METAR: ZGGG 222030Z 01003MPS CAVOK 23/09 Q1015 NOSIG

Hora: 05:03 (21:03 UTC)

Pronòstic

L'informe es va fer fa 5 hores i 58 minuts, a les 15:05 UTC
Pronòstic vàlid del 22 a les 18 UTC al 23 a les 18 UTC
Vent 8 kt del Nord/Nord-Est
Visibilitat 10 km o més
sense núvols per sota de 1500 mi sense presència de cumulonimbus.

TAF: ZGGG 221505Z 2218/2318 03004MPS CAVOK TX32/2307Z TN23/2222Z

Observacions i pronòstics meteorològics de més de 4000 aeroports (METAR i TAF).

Les estacions disponibles són els punts grocs i vermells al mapa.

Posi el ratolí al punt desitjat per veure el nom de l'estació.

Feu clic per veure les observacions i els pronòstics meteorològics.

Per canviar el mapa: feu clic els botons verds amb una creu de color negre per apropar; al botó verd amb un guió per allunyar la imatge; o en les fletxes verdes per a mapes adjacents.


METAR-TAF: